createdAt,value
2022-09-30T00:01:33.470Z,94187.78
2022-09-30T00:04:02.167Z,94201.69
2022-09-30T00:06:31.452Z,94188.69
2022-09-30T00:09:00.116Z,94183.66
2022-09-30T00:11:30.010Z,94196.78
2022-09-30T00:13:59.729Z,94192.91
2022-09-30T00:16:30.986Z,94203.97
2022-09-30T00:19:00.443Z,94208.31
2022-09-30T00:21:29.459Z,94208.28
2022-09-30T00:23:57.557Z,94208.50
2022-09-30T00:26:26.316Z,94206.59
2022-09-30T00:28:56.489Z,94208.72
2022-09-30T00:31:27.225Z,94210.91
2022-09-30T00:34:08.049Z,94207.16
2022-09-30T00:36:38.134Z,94190.47
2022-09-30T00:39:08.136Z,94199.69
2022-09-30T00:41:37.578Z,94206.00
2022-09-30T00:44:38.961Z,94197.97
2022-09-30T00:47:21.367Z,94188.75
2022-09-30T00:49:49.960Z,94186.97
2022-09-30T00:52:17.838Z,94189.75
2022-09-30T00:54:45.823Z,94193.81
2022-09-30T00:57:14.018Z,94201.84
2022-09-30T00:59:45.488Z,94206.00
2022-09-30T01:02:15.711Z,94207.16
2022-09-30T01:04:45.528Z,94214.88
2022-09-30T01:07:15.137Z,94228.00
2022-09-30T01:09:44.422Z,94224.53
2022-09-30T01:12:16.142Z,94215.31
2022-09-30T01:14:47.520Z,94227.66
2022-09-30T01:17:26.314Z,94219.84
2022-09-30T01:20:38.331Z,94226.38
2022-09-30T01:23:29.397Z,94233.81
2022-09-30T01:26:29.532Z,94245.59
2022-09-30T01:29:32.170Z,94240.28
2022-09-30T01:32:11.465Z,94245.06
2022-09-30T01:34:52.315Z,94240.16
2022-09-30T01:37:26.621Z,94247.81
2022-09-30T01:40:09.646Z,94242.25
2022-09-30T01:42:46.777Z,94252.66
2022-09-30T01:45:19.728Z,94248.91
2022-09-30T01:47:55.102Z,94267.19
2022-09-30T01:50:30.906Z,94266.78
2022-09-30T01:53:07.943Z,94251.13
2022-09-30T01:55:43.806Z,94259.59
2022-09-30T01:58:18.197Z,94254.25
2022-09-30T02:00:52.214Z,94255.66
2022-09-30T02:03:28.134Z,94252.94
2022-09-30T02:06:02.375Z,94260.44
2022-09-30T02:08:36.547Z,94265.13
2022-09-30T02:11:09.241Z,94252.00
2022-09-30T02:13:41.229Z,94251.81
2022-09-30T02:16:14.238Z,94249.19
2022-09-30T02:18:47.696Z,94249.97
2022-09-30T02:21:21.174Z,94243.09
2022-09-30T02:23:51.567Z,94238.59
2022-09-30T02:26:25.270Z,94235.06
2022-09-30T02:28:59.204Z,94238.47
2022-09-30T02:31:28.171Z,94238.88
2022-09-30T02:34:03.008Z,94241.63
2022-09-30T02:36:36.057Z,94239.06
2022-09-30T02:39:07.933Z,94230.06
2022-09-30T02:41:41.740Z,94229.28
2022-09-30T02:44:09.663Z,94238.16
2022-09-30T02:46:46.148Z,94242.66
2022-09-30T02:49:23.042Z,94254.03
2022-09-30T02:52:08.444Z,94248.94
2022-09-30T02:54:43.243Z,94256.59
2022-09-30T02:57:19.407Z,94277.41
2022-09-30T02:59:48.769Z,94277.78
2022-09-30T03:02:16.783Z,94268.19
2022-09-30T03:04:47.289Z,94280.91
2022-09-30T03:07:15.747Z,94272.50
2022-09-30T03:09:43.678Z,94280.50
2022-09-30T03:12:23.407Z,94291.94
2022-09-30T03:15:15.115Z,94287.00
2022-09-30T03:18:22.605Z,94290.72
2022-09-30T03:21:06.020Z,94292.69
2022-09-30T03:23:52.621Z,94297.00
2022-09-30T03:26:36.432Z,94295.22
2022-09-30T03:29:12.536Z,94310.34
2022-09-30T03:31:50.907Z,94310.56
2022-09-30T03:34:27.628Z,94311.72
2022-09-30T03:37:04.518Z,94322.31
2022-09-30T03:39:44.444Z,94319.75
2022-09-30T03:42:22.614Z,94340.31
2022-09-30T03:45:00.500Z,94327.78
2022-09-30T03:47:32.432Z,94323.06
2022-09-30T03:50:04.402Z,94332.28
2022-09-30T03:52:34.833Z,94329.34
2022-09-30T03:55:06.576Z,94322.09
2022-09-30T03:57:34.564Z,94321.91
2022-09-30T04:00:06.991Z,94322.28
2022-09-30T04:02:37.967Z,94322.47
2022-09-30T04:05:07.481Z,94319.75
2022-09-30T04:07:37.145Z,94324.47
2022-09-30T04:10:06.135Z,94322.72
2022-09-30T04:12:34.086Z,94335.81
2022-09-30T04:15:01.968Z,94337.19
2022-09-30T04:17:29.761Z,94337.56
2022-09-30T04:19:57.607Z,94346.53
2022-09-30T04:22:26.538Z,94348.50
2022-09-30T04:24:56.956Z,94341.22
2022-09-30T04:27:24.947Z,94341.84
2022-09-30T04:29:52.775Z,94348.69
2022-09-30T04:32:23.035Z,94349.47
2022-09-30T04:34:50.916Z,94351.28
2022-09-30T04:37:18.794Z,94357.00
2022-09-30T04:39:46.689Z,94348.97
2022-09-30T04:42:16.946Z,94360.91
2022-09-30T04:44:45.233Z,94368.38
2022-09-30T04:47:13.102Z,94376.78
2022-09-30T04:49:40.956Z,94364.22
2022-09-30T04:52:08.899Z,94372.06
2022-09-30T04:54:36.714Z,94377.09
2022-09-30T04:57:04.821Z,94371.59
2022-09-30T04:59:35.237Z,94384.94
2022-09-30T05:02:03.322Z,94370.38
2022-09-30T05:04:33.551Z,94378.03
2022-09-30T05:07:01.888Z,94370.16
2022-09-30T05:09:29.863Z,94379.00
2022-09-30T05:11:58.568Z,94384.88
2022-09-30T05:14:26.347Z,94383.69
2022-09-30T05:16:55.931Z,94383.91
2022-09-30T05:19:25.951Z,94385.53
2022-09-30T05:21:53.770Z,94384.97
2022-09-30T05:24:21.733Z,94386.72
2022-09-30T05:26:49.549Z,94395.53
2022-09-30T05:29:17.416Z,94394.09
2022-09-30T05:31:45.377Z,94393.69
2022-09-30T05:34:16.709Z,94405.66
2022-09-30T05:36:44.935Z,94405.69
2022-09-30T05:39:13.260Z,94394.09
2022-09-30T05:41:41.007Z,94404.72
2022-09-30T05:44:09.448Z,94408.66
2022-09-30T05:46:37.207Z,94418.22
2022-09-30T05:49:04.979Z,94426.06
2022-09-30T05:51:34.116Z,94427.88
2022-09-30T05:54:01.865Z,94419.25
2022-09-30T05:56:30.059Z,94425.03
2022-09-30T05:58:57.987Z,94437.81
2022-09-30T06:01:25.746Z,94440.97
2022-09-30T06:03:53.493Z,94447.09
2022-09-30T06:06:22.240Z,94453.84
2022-09-30T06:08:51.386Z,94457.56
2022-09-30T06:11:23.364Z,94464.88
2022-09-30T06:13:51.171Z,94460.38
2022-09-30T06:16:19.893Z,94460.94
2022-09-30T06:18:47.876Z,94456.25
2022-09-30T06:21:16.954Z,94457.00
2022-09-30T06:23:46.521Z,94469.00
2022-09-30T06:26:16.464Z,94460.16
2022-09-30T06:28:44.693Z,94466.84
2022-09-30T06:31:12.608Z,94467.03
2022-09-30T06:33:40.797Z,94455.44
2022-09-30T06:36:08.561Z,94465.22
2022-09-30T06:38:37.151Z,94465.75
2022-09-30T06:41:05.555Z,94469.47
2022-09-30T06:43:42.995Z,94470.78
2022-09-30T06:46:17.748Z,94479.63
2022-09-30T06:48:48.231Z,94476.47
2022-09-30T06:51:16.388Z,94487.03
2022-09-30T06:53:44.253Z,94494.25
2022-09-30T06:56:12.746Z,94490.03
2022-09-30T06:58:45.269Z,94494.72
2022-09-30T07:01:15.251Z,94505.44
2022-09-30T07:03:45.722Z,94510.28
2022-09-30T07:06:16.064Z,94507.78
2022-09-30T07:08:43.800Z,94509.56
2022-09-30T07:11:14.598Z,94503.00
2022-09-30T07:13:45.954Z,94513.63
2022-09-30T07:16:14.575Z,94518.53
2022-09-30T07:18:43.533Z,94527.84
2022-09-30T07:21:13.473Z,94528.56
2022-09-30T07:23:45.607Z,94547.22
2022-09-30T07:26:13.418Z,94555.13
2022-09-30T07:28:41.138Z,94566.75
2022-09-30T07:31:32.434Z,94561.84
2022-09-30T07:34:01.827Z,94566.53
2022-09-30T07:36:33.515Z,94561.94
2022-09-30T07:39:05.867Z,94545.72
2022-09-30T07:41:36.511Z,94542.03
2022-09-30T07:44:06.350Z,94538.53
2022-09-30T07:46:39.052Z,94545.25
2022-09-30T07:49:12.664Z,94555.25
2022-09-30T07:51:44.054Z,94558.81
2022-09-30T07:54:21.105Z,94575.91
2022-09-30T07:57:09.283Z,94565.50
2022-09-30T07:59:39.242Z,94576.38
2022-09-30T08:02:12.273Z,94569.78
2022-09-30T08:04:43.709Z,94581.06
2022-09-30T08:07:12.691Z,94586.78
2022-09-30T08:09:40.649Z,94592.28
2022-09-30T08:12:08.512Z,94594.88
2022-09-30T08:14:36.343Z,94597.34
2022-09-30T08:17:04.454Z,94592.56
2022-09-30T08:19:35.445Z,94593.47
2022-09-30T08:24:36.187Z,94590.97
2022-09-30T08:27:04.105Z,94593.03
2022-09-30T08:32:19.904Z,94575.06
2022-09-30T08:34:49.092Z,94588.78
2022-09-30T08:37:16.836Z,94586.28
2022-09-30T08:39:46.772Z,94599.59
2022-09-30T08:42:49.663Z,94615.28
2022-09-30T08:45:27.206Z,94609.16
2022-09-30T08:48:08.842Z,94616.13
2022-09-30T08:51:04.994Z,94617.13
2022-09-30T08:53:40.993Z,94622.38
2022-09-30T08:56:09.815Z,94617.13
2022-09-30T08:58:43.828Z,94624.97
2022-09-30T09:01:18.743Z,94628.78
2022-09-30T09:03:46.960Z,94620.88
2022-09-30T09:06:27.667Z,94628.81
2022-09-30T09:09:21.371Z,94637.03
2022-09-30T09:12:00.885Z,94650.50
2022-09-30T09:14:44.416Z,94649.41
2022-09-30T09:17:28.357Z,94653.91
2022-09-30T09:20:05.555Z,94659.22
2022-09-30T09:22:36.603Z,94655.75
2022-09-30T09:25:05.615Z,94662.59
2022-09-30T09:27:45.490Z,94666.75
2022-09-30T09:30:16.513Z,94667.75
2022-09-30T09:32:52.106Z,94662.09
2022-09-30T09:35:34.823Z,94659.16
2022-09-30T09:38:27.137Z,94661.78
2022-09-30T09:41:06.237Z,94656.28
2022-09-30T09:43:44.187Z,94662.78
2022-09-30T09:46:19.010Z,94662.44
2022-09-30T09:48:46.911Z,94658.19
2022-09-30T09:51:25.477Z,94649.44
2022-09-30T09:53:58.171Z,94637.56
2022-09-30T09:56:32.546Z,94642.44
2022-09-30T09:59:13.527Z,94644.81
2022-09-30T10:01:43.525Z,94651.97
2022-09-30T10:04:19.188Z,94647.28
2022-09-30T10:06:53.283Z,94655.78
2022-09-30T10:09:36.779Z,94666.78
2022-09-30T10:12:29.015Z,94680.06
2022-09-30T10:15:06.063Z,94683.97
2022-09-30T10:17:35.658Z,94679.97
2022-09-30T10:20:08.221Z,94681.63
2022-09-30T10:22:37.466Z,94686.84
2022-09-30T10:25:21.235Z,94677.31
2022-09-30T10:27:51.882Z,94684.03
2022-09-30T10:30:36.769Z,94669.09
2022-09-30T10:33:05.500Z,94683.28
2022-09-30T10:35:33.435Z,94685.25
2022-09-30T10:38:01.513Z,94690.97
2022-09-30T10:40:31.770Z,94684.03
2022-09-30T10:43:00.665Z,94680.97
2022-09-30T10:45:34.526Z,94676.38
2022-09-30T10:48:07.938Z,94685.47
2022-09-30T10:50:36.053Z,94694.19
2022-09-30T10:53:12.770Z,94695.97
2022-09-30T10:55:47.098Z,94693.72
2022-09-30T10:58:36.284Z,94704.88
2022-09-30T11:01:13.541Z,94702.16
2022-09-30T11:03:51.484Z,94698.72
2022-09-30T11:06:20.530Z,94705.03
2022-09-30T11:08:54.974Z,94699.59
2022-09-30T11:11:29.142Z,94706.91
2022-09-30T11:14:02.825Z,94713.59
2022-09-30T11:16:38.236Z,94715.38
2022-09-30T11:19:13.766Z,94722.59
2022-09-30T11:21:46.763Z,94720.56
2022-09-30T11:24:26.917Z,94730.25
2022-09-30T11:27:07.587Z,94738.25
2022-09-30T11:29:52.477Z,94737.41
2022-09-30T11:32:31.237Z,94727.75
2022-09-30T11:35:10.627Z,94726.91
2022-09-30T11:37:56.450Z,94727.06
2022-09-30T11:40:44.548Z,94725.13
2022-09-30T11:43:28.102Z,94711.75
2022-09-30T11:46:24.354Z,94717.59
2022-09-30T11:49:03.610Z,94720.06
2022-09-30T11:51:38.121Z,94707.03
2022-09-30T11:54:22.264Z,94710.06
2022-09-30T11:56:56.100Z,94718.72
2022-09-30T11:59:29.599Z,94719.09
2022-09-30T12:02:02.410Z,94726.84
2022-09-30T12:04:33.491Z,94721.91
2022-09-30T12:07:05.397Z,94726.88
2022-09-30T12:09:38.301Z,94726.09
2022-09-30T12:12:12.534Z,94724.94
2022-09-30T12:14:50.799Z,94723.59
2022-09-30T12:17:27.887Z,94727.09
2022-09-30T12:19:59.298Z,94715.66
2022-09-30T12:22:31.566Z,94722.06
2022-09-30T12:24:59.358Z,94705.22
2022-09-30T12:27:35.127Z,94712.16
2022-09-30T12:30:18.096Z,94705.06
2022-09-30T12:33:25.130Z,94708.41
2022-09-30T12:36:29.483Z,94714.38
2022-09-30T12:39:36.952Z,94717.31
2022-09-30T12:42:21.632Z,94716.13
2022-09-30T12:45:18.800Z,94704.97
2022-09-30T12:47:52.779Z,94707.78
2022-09-30T12:50:23.599Z,94710.78
2022-09-30T12:52:51.811Z,94718.09
2022-09-30T12:55:31.236Z,94712.81
2022-09-30T12:58:02.306Z,94715.69
2022-09-30T13:00:34.751Z,94717.38
2022-09-30T13:03:08.047Z,94712.28
2022-09-30T13:05:56.231Z,94708.09
2022-09-30T13:08:51.845Z,94712.81
2022-09-30T13:11:41.781Z,94724.50
2022-09-30T13:14:34.900Z,94720.00
2022-09-30T13:17:30.255Z,94707.78
2022-09-30T13:19:58.634Z,94712.09
2022-09-30T13:22:44.170Z,94711.06
2022-09-30T13:25:13.948Z,94699.66
2022-09-30T13:27:44.978Z,94694.19
2022-09-30T13:30:41.336Z,94706.28
2022-09-30T13:33:45.806Z,94704.91
2022-09-30T13:36:28.655Z,94711.72
2022-09-30T13:39:17.899Z,94718.03
2022-09-30T13:41:48.142Z,94713.00
2022-09-30T13:44:36.033Z,94710.34
2022-09-30T13:47:20.250Z,94705.63
2022-09-30T13:49:56.037Z,94712.41
2022-09-30T13:52:28.623Z,94709.09
2022-09-30T13:54:59.865Z,94719.94
2022-09-30T13:57:39.988Z,94716.75
2022-09-30T14:00:13.369Z,94711.84
2022-09-30T14:03:14.109Z,94704.22
2022-09-30T14:06:00.141Z,94711.75
2022-09-30T14:09:01.171Z,94723.53
2022-09-30T14:11:46.627Z,94713.63
2022-09-30T14:14:43.261Z,94719.03
2022-09-30T14:17:32.396Z,94716.97
2022-09-30T14:20:14.612Z,94720.97
2022-09-30T14:22:44.149Z,94717.72
2022-09-30T14:25:16.592Z,94719.28
2022-09-30T14:28:04.304Z,94711.88
2022-09-30T14:30:38.812Z,94716.38
2022-09-30T14:33:20.480Z,94726.91
2022-09-30T14:35:49.387Z,94716.88
2022-09-30T14:38:22.993Z,94719.72
2022-09-30T14:40:53.151Z,94723.31
2022-09-30T14:43:24.086Z,94718.53
2022-09-30T14:45:56.055Z,94728.06
2022-09-30T14:48:30.753Z,94736.09
2022-09-30T14:51:02.091Z,94729.94
2022-09-30T14:53:33.214Z,94732.16
2022-09-30T14:56:02.327Z,94734.03
2022-09-30T14:58:31.754Z,94733.53
2022-09-30T15:01:06.863Z,94732.84
2022-09-30T15:03:37.806Z,94741.03
2022-09-30T15:06:07.621Z,94736.66
2022-09-30T15:08:38.966Z,94728.84
2022-09-30T15:11:06.978Z,94733.63
2022-09-30T15:13:36.057Z,94738.22
2022-09-30T15:16:03.808Z,94733.41
2022-09-30T15:18:35.588Z,94738.41
2022-09-30T15:21:11.263Z,94732.47
2022-09-30T15:23:43.842Z,94738.41
2022-09-30T15:26:14.071Z,94739.44
2022-09-30T15:28:42.035Z,94740.81
2022-09-30T15:31:22.113Z,94743.38
2022-09-30T15:33:50.192Z,94738.66
2022-09-30T15:36:19.744Z,94741.72
2022-09-30T15:38:52.271Z,94752.59
2022-09-30T15:41:20.174Z,94745.97
2022-09-30T15:43:51.104Z,94752.56
2022-09-30T15:46:23.401Z,94745.94
2022-09-30T15:48:51.190Z,94748.88
2022-09-30T15:51:29.076Z,94743.03
2022-09-30T15:54:00.409Z,94747.19
2022-09-30T15:56:36.820Z,94747.53
2022-09-30T15:59:07.664Z,94758.06
2022-09-30T16:01:37.998Z,94764.31
2022-09-30T16:04:14.334Z,94749.31
2022-09-30T16:06:48.445Z,94744.75
2022-09-30T16:09:25.243Z,94774.56
2022-09-30T16:12:05.232Z,94782.50
2022-09-30T16:14:40.459Z,94774.84
2022-09-30T16:17:17.678Z,94766.38
2022-09-30T16:19:52.199Z,94761.44
2022-09-30T16:22:51.540Z,94767.03
2022-09-30T16:25:28.083Z,94776.47
2022-09-30T16:27:59.611Z,94775.91
2022-09-30T16:30:29.211Z,94773.19
2022-09-30T16:32:59.224Z,94776.53
2022-09-30T16:35:28.806Z,94777.88
2022-09-30T16:38:01.215Z,94779.97
2022-09-30T16:40:32.057Z,94782.28
2022-09-30T16:43:01.323Z,94770.94
2022-09-30T16:45:31.099Z,94771.50
2022-09-30T16:48:01.471Z,94775.63
2022-09-30T16:50:35.974Z,94783.56
2022-09-30T16:53:04.000Z,94784.16
2022-09-30T16:55:33.461Z,94786.72
2022-09-30T16:58:01.378Z,94792.06
2022-09-30T17:00:30.176Z,94798.22
2022-09-30T17:02:58.015Z,94803.22
2022-09-30T17:05:27.817Z,94816.06
2022-09-30T17:07:57.593Z,94815.66
2022-09-30T17:10:29.029Z,94802.53
2022-09-30T17:13:00.244Z,94796.81
2022-09-30T17:15:29.704Z,94808.31
2022-09-30T17:17:57.960Z,94810.09
2022-09-30T17:20:26.439Z,94797.13
2022-09-30T17:22:54.369Z,94802.88
2022-09-30T17:25:22.166Z,94802.22
2022-09-30T17:27:50.915Z,94808.38
2022-09-30T17:30:21.357Z,94803.22
2022-09-30T17:32:49.161Z,94813.16
2022-09-30T17:35:17.324Z,94805.84
2022-09-30T17:37:46.497Z,94805.28
2022-09-30T17:40:29.025Z,94803.59
2022-09-30T17:43:10.764Z,94805.47
2022-09-30T17:45:42.400Z,94810.13
2022-09-30T17:48:11.385Z,94803.44
2022-09-30T17:50:44.236Z,94812.72
2022-09-30T17:53:14.133Z,94814.47
2022-09-30T17:55:42.131Z,94814.19
2022-09-30T17:58:11.398Z,94808.22
2022-09-30T18:00:41.464Z,94813.59
2022-09-30T18:03:09.919Z,94807.94
2022-09-30T18:05:40.754Z,94807.00
2022-09-30T18:08:08.583Z,94803.19
2022-09-30T18:10:37.899Z,94810.16
2022-09-30T18:13:06.288Z,94802.09
2022-09-30T18:15:34.323Z,94807.63
2022-09-30T18:18:03.561Z,94802.47
2022-09-30T18:20:31.388Z,94805.22
2022-09-30T18:22:59.109Z,94809.34
2022-09-30T18:25:27.072Z,94814.50
2022-09-30T18:27:58.381Z,94818.88
2022-09-30T18:30:26.940Z,94821.44
2022-09-30T18:32:56.151Z,94814.41
2022-09-30T18:35:26.431Z,94822.81
2022-09-30T18:37:54.723Z,94821.78
2022-09-30T18:40:24.553Z,94827.91
2022-09-30T18:42:58.469Z,94831.28
2022-09-30T18:45:26.940Z,94827.72
2022-09-30T18:47:56.557Z,94829.09
2022-09-30T18:50:27.121Z,94834.78
2022-09-30T18:52:56.900Z,94831.66
2022-09-30T18:55:25.177Z,94829.44
2022-09-30T18:57:55.008Z,94829.00
2022-09-30T19:00:22.818Z,94832.53
2022-09-30T19:02:52.989Z,94836.47
2022-09-30T19:05:21.113Z,94829.50
2022-09-30T19:07:50.424Z,94836.59
2022-09-30T19:10:18.364Z,94839.00
2022-09-30T19:12:46.106Z,94836.84
2022-09-30T19:15:16.267Z,94827.97
2022-09-30T19:17:50.732Z,94829.75
2022-09-30T19:20:18.795Z,94819.97
2022-09-30T19:22:46.825Z,94831.03
2022-09-30T19:25:16.509Z,94816.59
2022-09-30T19:27:46.460Z,94811.88
2022-09-30T19:30:17.847Z,94815.88
2022-09-30T19:32:45.735Z,94814.09
2022-09-30T19:35:19.149Z,94811.31
2022-09-30T19:37:57.971Z,94822.38
2022-09-30T19:43:04.913Z,94815.50
2022-09-30T19:45:33.115Z,94809.72
2022-09-30T19:48:01.716Z,94820.63
2022-09-30T19:50:30.062Z,94816.38
2022-09-30T19:52:58.028Z,94814.16
2022-09-30T19:55:32.919Z,94809.25
2022-09-30T19:58:07.794Z,94809.47
2022-09-30T20:00:35.734Z,94803.75
2022-09-30T20:03:03.702Z,94809.50
2022-09-30T20:05:32.378Z,94808.13
2022-09-30T20:08:00.238Z,94803.59
2022-09-30T20:10:33.017Z,94817.44
2022-09-30T20:13:00.871Z,94813.13
2022-09-30T20:15:48.557Z,94805.03
2022-09-30T20:18:16.399Z,94802.09
2022-09-30T20:20:45.562Z,94804.03
2022-09-30T20:23:17.116Z,94802.84
2022-09-30T20:25:46.340Z,94811.13
2022-09-30T20:28:14.321Z,94807.31
2022-09-30T20:30:45.390Z,94808.09
2022-09-30T20:33:15.556Z,94801.81
2022-09-30T20:35:43.389Z,94814.22
2022-09-30T20:38:13.495Z,94809.69
2022-09-30T20:40:41.497Z,94822.16
2022-09-30T20:43:11.411Z,94819.94
2022-09-30T20:45:41.383Z,94813.25
2022-09-30T20:48:09.812Z,94818.16
2022-09-30T20:50:42.226Z,94825.50
2022-09-30T20:53:12.764Z,94835.78
2022-09-30T20:55:44.463Z,94818.56
2022-09-30T20:58:13.893Z,94823.72
2022-09-30T21:00:43.053Z,94818.16
2022-09-30T21:03:12.920Z,94836.28
2022-09-30T21:05:40.774Z,94830.94
2022-09-30T21:08:08.501Z,94834.38
2022-09-30T21:10:38.581Z,94834.19
2022-09-30T21:13:11.322Z,94835.38
2022-09-30T21:15:40.647Z,94841.50
2022-09-30T21:18:09.129Z,94857.50
2022-09-30T21:20:37.274Z,94857.91
2022-09-30T21:23:05.200Z,94856.69
2022-09-30T21:25:33.287Z,94860.50
2022-09-30T21:28:01.399Z,94863.63
2022-09-30T21:30:29.201Z,94860.91
2022-09-30T21:32:58.332Z,94864.66
2022-09-30T21:35:26.137Z,94841.19
2022-09-30T21:37:53.971Z,94846.94
2022-09-30T21:40:21.716Z,94844.63
2022-09-30T21:42:49.476Z,94835.56
2022-09-30T21:45:18.308Z,94841.84
2022-09-30T21:47:46.023Z,94838.13
2022-09-30T21:50:18.033Z,94838.13
2022-09-30T21:52:47.340Z,94842.34
2022-09-30T21:55:15.248Z,94838.59
2022-09-30T21:57:43.300Z,94839.03
2022-09-30T22:00:14.586Z,94829.78
2022-09-30T22:02:43.857Z,94844.97
2022-09-30T22:05:12.089Z,94838.50
2022-09-30T22:07:42.130Z,94848.97
2022-09-30T22:10:10.462Z,94836.22
2022-09-30T22:12:38.218Z,94839.16
2022-09-30T22:15:06.748Z,94843.50
2022-09-30T22:17:34.519Z,94838.94
2022-09-30T22:20:02.500Z,94834.25
2022-09-30T22:22:30.286Z,94836.59
2022-09-30T22:24:59.342Z,94846.63
2022-09-30T22:27:27.345Z,94844.50
2022-09-30T22:29:55.223Z,94851.59
2022-09-30T22:32:23.007Z,94852.78
2022-09-30T22:35:08.350Z,94862.06
2022-09-30T22:38:02.154Z,94858.69
2022-09-30T22:40:31.288Z,94853.78
2022-09-30T22:42:59.046Z,94865.59
2022-09-30T22:45:26.853Z,94861.06
2022-09-30T22:47:55.272Z,94866.19
2022-09-30T22:50:24.987Z,94870.34
2022-09-30T22:52:52.798Z,94869.16
2022-09-30T22:55:20.648Z,94867.00
2022-09-30T22:57:49.758Z,94866.22
2022-09-30T23:00:17.791Z,94888.47
2022-09-30T23:02:45.567Z,94888.25
2022-09-30T23:05:15.258Z,94894.94
2022-09-30T23:07:43.066Z,94897.53
2022-09-30T23:10:11.157Z,94911.16
2022-09-30T23:12:38.921Z,94912.16
2022-09-30T23:15:09.077Z,94911.38
2022-09-30T23:17:36.783Z,94922.00
2022-09-30T23:20:05.276Z,94915.69
2022-09-30T23:22:33.257Z,94917.84
2022-09-30T23:25:02.697Z,94927.72
2022-09-30T23:27:30.554Z,94920.44
2022-09-30T23:29:58.378Z,94923.00
2022-09-30T23:32:28.031Z,94930.50
2022-09-30T23:34:55.764Z,94934.84
2022-09-30T23:37:23.561Z,94931.25
2022-09-30T23:39:51.374Z,94922.16
2022-09-30T23:42:20.155Z,94928.69
2022-09-30T23:44:47.927Z,94930.84
2022-09-30T23:47:21.447Z,94923.75
2022-09-30T23:49:50.976Z,94918.41
2022-09-30T23:52:18.795Z,94920.59
2022-09-30T23:54:46.933Z,94925.53
2022-09-30T23:57:14.993Z,94924.34
2022-09-30T23:59:42.839Z,94934.38
